sensor_id;sensor_type;location;lat;lon;timestamp;pressure;altitude;pressure_sealevel;temperature;humidity
14269;BME280;7218;51.480;7.006;2023-05-23T00:00:35;100519.16;;;14.55;100.00
14269;BME280;7218;51.480;7.006;2023-05-23T00:03:02;100520.28;;;14.48;100.00
14269;BME280;7218;51.480;7.006;2023-05-23T00:05:29;100527.13;;;14.52;100.00
14269;BME280;7218;51.480;7.006;2023-05-23T00:07:55;100532.72;;;14.12;100.00
14269;BME280;7218;51.480;7.006;2023-05-23T00:10:22;100532.81;;;14.09;100.00
14269;BME280;7218;51.480;7.006;2023-05-23T00:12:48;100521.72;;;14.29;100.00
14269;BME280;7218;51.480;7.006;2023-05-23T00:15:18;100524.81;;;14.43;100.00
14269;BME280;7218;51.480;7.006;2023-05-23T00:17:45;100529.88;;;14.19;100.00
14269;BME280;7218;51.480;7.006;2023-05-23T00:20:12;100530.19;;;14.09;100.00
14269;BME280;7218;51.480;7.006;2023-05-23T00:22:39;100533.31;;;14.20;100.00
14269;BME280;7218;51.480;7.006;2023-05-23T00:25:07;100522.47;;;14.32;100.00
14269;BME280;7218;51.480;7.006;2023-05-23T00:27:34;100529.44;;;14.33;100.00
14269;BME280;7218;51.480;7.006;2023-05-23T00:30:00;100537.03;;;14.44;100.00
14269;BME280;7218;51.480;7.006;2023-05-23T00:32:28;100537.97;;;14.41;100.00
14269;BME280;7218;51.480;7.006;2023-05-23T00:34:54;100532.97;;;14.32;100.00
14269;BME280;7218;51.480;7.006;2023-05-23T00:37:22;100541.34;;;14.45;100.00
14269;BME280;7218;51.480;7.006;2023-05-23T00:39:48;100545.53;;;14.21;100.00
14269;BME280;7218;51.480;7.006;2023-05-23T00:42:15;100537.31;;;14.33;100.00
14269;BME280;7218;51.480;7.006;2023-05-23T00:44:41;100541.34;;;14.45;100.00
14269;BME280;7218;51.480;7.006;2023-05-23T00:47:08;100545.59;;;14.19;100.00
14269;BME280;7218;51.480;7.006;2023-05-23T00:49:36;100550.22;;;14.41;100.00
14269;BME280;7218;51.480;7.006;2023-05-23T00:52:03;100555.19;;;14.50;100.00
14269;BME280;7218;51.480;7.006;2023-05-23T00:54:30;100551.56;;;14.54;100.00
14269;BME280;7218;51.480;7.006;2023-05-23T00:56:57;100549.09;;;14.49;100.00
14269;BME280;7218;51.480;7.006;2023-05-23T00:59:24;100555.25;;;14.48;100.00
14269;BME280;7218;51.480;7.006;2023-05-23T01:01:51;100543.91;;;14.46;100.00
14269;BME280;7218;51.480;7.006;2023-05-23T01:04:19;100548.13;;;14.52;100.00
14269;BME280;7218;51.480;7.006;2023-05-23T01:06:52;100546.38;;;14.52;100.00
14269;BME280;7218;51.480;7.006;2023-05-23T01:09:20;100546.38;;;14.52;100.00
14269;BME280;7218;51.480;7.006;2023-05-23T01:11:56;100545.97;;;14.64;100.00
14269;BME280;7218;51.480;7.006;2023-05-23T01:14:31;100546.50;;;14.48;100.00
14269;BME280;7218;51.480;7.006;2023-05-23T01:17:06;100552.03;;;14.67;100.00
14269;BME280;7218;51.480;7.006;2023-05-23T01:19:57;100548.47;;;14.69;100.00
14269;BME280;7218;51.480;7.006;2023-05-23T01:22:36;100545.59;;;14.77;100.00
14269;BME280;7218;51.480;7.006;2023-05-23T01:25:10;100541.09;;;14.54;100.00
14269;BME280;7218;51.480;7.006;2023-05-23T01:27:54;100550.97;;;14.72;100.00
14269;BME280;7218;51.480;7.006;2023-05-23T01:30:23;100537.19;;;14.65;100.00
14269;BME280;7218;51.480;7.006;2023-05-23T01:32:53;100546.06;;;14.61;100.00
14269;BME280;7218;51.480;7.006;2023-05-23T01:35:24;100539.03;;;14.63;100.00
14269;BME280;7218;51.480;7.006;2023-05-23T01:37:51;100542.59;;;14.32;100.00
14269;BME280;7218;51.480;7.006;2023-05-23T01:40:18;100544.75;;;14.48;100.00
14269;BME280;7218;51.480;7.006;2023-05-23T01:42:44;100547.22;;;14.53;100.00
14269;BME280;7218;51.480;7.006;2023-05-23T01:45:13;100547.25;;;14.51;100.00
14269;BME280;7218;51.480;7.006;2023-05-23T01:47:40;100544.09;;;14.40;100.00
14269;BME280;7218;51.480;7.006;2023-05-23T01:50:09;100546.25;;;14.55;100.00
14269;BME280;7218;51.480;7.006;2023-05-23T01:52:36;100542.19;;;14.45;100.00
14269;BME280;7218;51.480;7.006;2023-05-23T01:55:05;100543.25;;;14.68;100.00
14269;BME280;7218;51.480;7.006;2023-05-23T01:57:35;100552.75;;;14.72;100.00
14269;BME280;7218;51.480;7.006;2023-05-23T02:00:02;100557.88;;;14.48;100.00
14269;BME280;7218;51.480;7.006;2023-05-23T02:02:31;100554.81;;;14.33;100.00
14269;BME280;7218;51.480;7.006;2023-05-23T02:04:58;100553.28;;;14.26;100.00
14269;BME280;7218;51.480;7.006;2023-05-23T02:07:24;100558.19;;;14.38;100.00
14269;BME280;7218;51.480;7.006;2023-05-23T02:09:51;100562.47;;;14.40;100.00
14269;BME280;7218;51.480;7.006;2023-05-23T02:12:17;100562.44;;;14.42;100.00
14269;BME280;7218;51.480;7.006;2023-05-23T02:14:44;100561.56;;;14.41;100.00
14269;BME280;7218;51.480;7.006;2023-05-23T02:17:11;100571.06;;;14.45;100.00
14269;BME280;7218;51.480;7.006;2023-05-23T02:19:40;100561.28;;;14.50;100.00
14269;BME280;7218;51.480;7.006;2023-05-23T02:22:07;100555.13;;;14.51;100.00
14269;BME280;7218;51.480;7.006;2023-05-23T02:24:33;100555.72;;;14.32;100.00
14269;BME280;7218;51.480;7.006;2023-05-23T02:27:00;100559.38;;;14.26;100.00
14269;BME280;7218;51.480;7.006;2023-05-23T02:29:26;100554.22;;;14.23;100.00
14269;BME280;7218;51.480;7.006;2023-05-23T02:31:53;100563.31;;;14.42;100.00
14269;BME280;7218;51.480;7.006;2023-05-23T02:34:19;100563.31;;;14.42;100.00
14269;BME280;7218;51.480;7.006;2023-05-23T02:36:47;100562.16;;;14.51;100.00
14269;BME280;7218;51.480;7.006;2023-05-23T02:39:13;100561.66;;;14.09;100.00
14269;BME280;7218;51.480;7.006;2023-05-23T02:41:40;100574.25;;;14.26;100.00
14269;BME280;7218;51.480;7.006;2023-05-23T02:44:06;100572.56;;;14.25;100.00
14269;BME280;7218;51.480;7.006;2023-05-23T02:46:33;100578.22;;;14.40;100.00
14269;BME280;7218;51.480;7.006;2023-05-23T02:48:59;100575.84;;;14.31;100.00
14269;BME280;7218;51.480;7.006;2023-05-23T02:51:26;100575.09;;;14.28;100.00
14269;BME280;7218;51.480;7.006;2023-05-23T02:53:53;100582.28;;;14.50;100.00
14269;BME280;7218;51.480;7.006;2023-05-23T02:56:20;100584.16;;;14.16;100.00
14269;BME280;7218;51.480;7.006;2023-05-23T02:58:47;100580.31;;;13.98;100.00
14269;BME280;7218;51.480;7.006;2023-05-23T03:01:14;100582.06;;;13.98;100.00
14269;BME280;7218;51.480;7.006;2023-05-23T03:03:40;100572.94;;;14.11;100.00
14269;BME280;7218;51.480;7.006;2023-05-23T03:06:07;100586.84;;;14.14;100.00
14269;BME280;7218;51.480;7.006;2023-05-23T03:08:34;100583.81;;;13.99;100.00
14269;BME280;7218;51.480;7.006;2023-05-23T03:11:02;100584.88;;;14.21;100.00
14269;BME280;7218;51.480;7.006;2023-05-23T03:13:29;100589.47;;;13.84;100.00
14269;BME280;7218;51.480;7.006;2023-05-23T03:15:55;100590.56;;;14.06;100.00
14269;BME280;7218;51.480;7.006;2023-05-23T03:18:22;100589.94;;;13.98;100.00
14269;BME280;7218;51.480;7.006;2023-05-23T03:20:48;100593.00;;;14.13;100.00
14269;BME280;7218;51.480;7.006;2023-05-23T03:23:15;100596.28;;;14.20;100.00
14269;BME280;7218;51.480;7.006;2023-05-23T03:25:42;100595.66;;;14.12;100.00
14269;BME280;7218;51.480;7.006;2023-05-23T03:28:10;100595.53;;;14.15;100.00
14269;BME280;7218;51.480;7.006;2023-05-23T03:30:37;100601.63;;;14.17;100.00
14269;BME280;7218;51.480;7.006;2023-05-23T03:33:03;100601.00;;;14.09;100.00
14269;BME280;7218;51.480;7.006;2023-05-23T03:35:31;100606.44;;;14.01;100.00
14269;BME280;7218;51.480;7.006;2023-05-23T03:37:57;100607.69;;;13.88;100.00
14269;BME280;7218;51.480;7.006;2023-05-23T03:40:24;100598.69;;;13.97;100.00
14269;BME280;7218;51.480;7.006;2023-05-23T03:43:00;100606.28;;;14.07;100.00
14269;BME280;7218;51.480;7.006;2023-05-23T03:45:28;100615.91;;;14.07;100.00
14269;BME280;7218;51.480;7.006;2023-05-23T03:47:55;100610.81;;;14.01;100.00
14269;BME280;7218;51.480;7.006;2023-05-23T03:50:21;100619.59;;;14.00;100.00
14269;BME280;7218;51.480;7.006;2023-05-23T03:52:48;100628.31;;;13.69;100.00
14269;BME280;7218;51.480;7.006;2023-05-23T03:55:14;100622.84;;;13.77;100.00
14269;BME280;7218;51.480;7.006;2023-05-23T03:57:41;100631.34;;;13.85;100.00
14269;BME280;7218;51.480;7.006;2023-05-23T04:00:08;100625.28;;;13.85;100.00
14269;BME280;7218;51.480;7.006;2023-05-23T04:02:37;100633.75;;;13.94;100.00
14269;BME280;7218;51.480;7.006;2023-05-23T04:05:05;100628.41;;;13.97;100.00
14269;BME280;7218;51.480;7.006;2023-05-23T04:07:33;100632.22;;;13.86;100.00
14269;BME280;7218;51.480;7.006;2023-05-23T04:10:00;100638.31;;;13.86;100.00
14269;BME280;7218;51.480;7.006;2023-05-23T04:12:27;100632.22;;;13.86;100.00
14269;BME280;7218;51.480;7.006;2023-05-23T04:14:54;100641.00;;;13.85;100.00
14269;BME280;7218;51.480;7.006;2023-05-23T04:17:21;100632.84;;;13.63;100.00
14269;BME280;7218;51.480;7.006;2023-05-23T04:19:49;100640.75;;;13.94;100.00
14269;BME280;7218;51.480;7.006;2023-05-23T04:22:16;100636.66;;;13.84;100.00
14269;BME280;7218;51.480;7.006;2023-05-23T04:24:42;100644.53;;;13.84;100.00
14269;BME280;7218;51.480;7.006;2023-05-23T04:27:09;100638.13;;;13.94;100.00
14269;BME280;7218;51.480;7.006;2023-05-23T04:29:35;100647.53;;;14.01;100.00
14269;BME280;7218;51.480;7.006;2023-05-23T04:32:02;100647.78;;;13.92;100.00
14269;BME280;7218;51.480;7.006;2023-05-23T04:34:30;100647.91;;;13.87;100.00
14269;BME280;7218;51.480;7.006;2023-05-23T04:36:59;100653.59;;;14.03;100.00
14269;BME280;7218;51.480;7.006;2023-05-23T04:39:26;100654.84;;;13.90;100.00
14269;BME280;7218;51.480;7.006;2023-05-23T04:41:53;100653.72;;;13.98;100.00
14269;BME280;7218;51.480;7.006;2023-05-23T04:44:19;100651.91;;;14.00;100.00
14269;BME280;7218;51.480;7.006;2023-05-23T04:46:46;100651.16;;;13.97;100.00
14269;BME280;7218;51.480;7.006;2023-05-23T04:49:12;100657.22;;;13.99;100.00
14269;BME280;7218;51.480;7.006;2023-05-23T04:51:39;100653.88;;;13.94;100.00
14269;BME280;7218;51.480;7.006;2023-05-23T04:54:06;100649.88;;;14.10;100.00
14269;BME280;7218;51.480;7.006;2023-05-23T04:56:33;100651.41;;;13.88;100.00
14269;BME280;7218;51.480;7.006;2023-05-23T04:59:00;100654.00;;;13.89;100.00
14269;BME280;7218;51.480;7.006;2023-05-23T05:01:26;100657.13;;;14.02;100.00
14269;BME280;7218;51.480;7.006;2023-05-23T05:03:53;100661.31;;;13.76;100.00
14269;BME280;7218;51.480;7.006;2023-05-23T05:06:19;100666.34;;;13.84;100.00
14269;BME280;7218;51.480;7.006;2023-05-23T05:08:46;100660.81;;;13.95;100.00
14269;BME280;7218;51.480;7.006;2023-05-23T05:11:14;100663.78;;;13.83;100.00
14269;BME280;7218;51.480;7.006;2023-05-23T05:13:40;100665.75;;;13.74;100.00
14269;BME280;7218;51.480;7.006;2023-05-23T05:16:07;100669.88;;;13.83;100.00
14269;BME280;7218;51.480;7.006;2023-05-23T05:18:34;100679.16;;;13.95;100.00
14269;BME280;7218;51.480;7.006;2023-05-23T05:21:00;100680.38;;;13.82;100.00
14269;BME280;7218;51.480;7.006;2023-05-23T05:23:27;100682.09;;;13.84;100.00
14269;BME280;7218;51.480;7.006;2023-05-23T05:25:54;100671.03;;;13.71;100.00
14269;BME280;7218;51.480;7.006;2023-05-23T05:28:22;100681.00;;;13.91;100.00
14269;BME280;7218;51.480;7.006;2023-05-23T05:30:49;100685.66;;;13.80;100.00
14269;BME280;7218;51.480;7.006;2023-05-23T05:33:18;100691.09;;;13.74;100.00
14269;BME280;7218;51.480;7.006;2023-05-23T05:35:44;100691.84;;;13.79;100.00
14269;BME280;7218;51.480;7.006;2023-05-23T05:38:11;100692.50;;;13.86;100.00
14269;BME280;7218;51.480;7.006;2023-05-23T05:40:37;100702.34;;;13.77;100.00
14269;BME280;7218;51.480;7.006;2023-05-23T05:43:04;100707.72;;;13.73;100.00
14269;BME280;7218;51.480;7.006;2023-05-23T05:45:32;100704.41;;;13.99;100.00
14269;BME280;7218;51.480;7.006;2023-05-23T05:47:58;100712.84;;;13.76;100.00
14269;BME280;7218;51.480;7.006;2023-05-23T05:50:25;100714.47;;;13.82;100.00
14269;BME280;7218;51.480;7.006;2023-05-23T05:52:51;100713.44;;;13.87;100.00
14269;BME280;7218;51.480;7.006;2023-05-23T05:55:17;100714.72;;;13.72;100.00
14269;BME280;7218;51.480;7.006;2023-05-23T05:57:44;100705.81;;;13.79;100.00
14269;BME280;7218;51.480;7.006;2023-05-23T06:00:12;100715.69;;;14.02;100.00
14269;BME280;7218;51.480;7.006;2023-05-23T06:02:41;100712.34;;;13.96;100.00
14269;BME280;7218;51.480;7.006;2023-05-23T06:05:09;100717.69;;;13.93;100.00
14269;BME280;7218;51.480;7.006;2023-05-23T06:07:36;100719.84;;;13.77;100.00
14269;BME280;7218;51.480;7.006;2023-05-23T06:10:03;100716.84;;;13.91;100.00
14269;BME280;7218;51.480;7.006;2023-05-23T06:12:30;100715.94;;;13.92;100.00
14269;BME280;7218;51.480;7.006;2023-05-23T06:14:56;100722.72;;;13.66;100.00
14269;BME280;7218;51.480;7.006;2023-05-23T06:17:23;100718.81;;;13.83;100.00
14269;BME280;7218;51.480;7.006;2023-05-23T06:19:51;100725.94;;;13.77;100.00
14269;BME280;7218;51.480;7.006;2023-05-23T06:22:17;100726.03;;;13.74;100.00
14269;BME280;7218;51.480;7.006;2023-05-23T06:24:44;100727.06;;;13.67;100.00
14269;BME280;7218;51.480;7.006;2023-05-23T06:27:10;100726.56;;;13.87;100.00
14269;BME280;7218;51.480;7.006;2023-05-23T06:29:37;100733.66;;;13.84;100.00
14269;BME280;7218;51.480;7.006;2023-05-23T06:32:04;100732.41;;;13.98;100.00
14269;BME280;7218;51.480;7.006;2023-05-23T06:34:31;100740.38;;;13.94;100.00
14269;BME280;7218;51.480;7.006;2023-05-23T06:36:58;100733.25;;;13.99;100.00
14269;BME280;7218;51.480;7.006;2023-05-23T06:39:25;100734.16;;;13.98;100.00
14269;BME280;7218;51.480;7.006;2023-05-23T06:41:52;100728.53;;;14.11;100.00
14269;BME280;7218;51.480;7.006;2023-05-23T06:44:19;100745.28;;;14.06;100.00
14269;BME280;7218;51.480;7.006;2023-05-23T06:46:45;100753.44;;;13.95;100.00
14269;BME280;7218;51.480;7.006;2023-05-23T06:49:12;100749.88;;;13.98;100.00
14269;BME280;7218;51.480;7.006;2023-05-23T06:51:38;100748.06;;;14.00;100.00
14269;BME280;7218;51.480;7.006;2023-05-23T06:54:06;100751.63;;;13.99;100.00
14269;BME280;7218;51.480;7.006;2023-05-23T06:56:33;100756.03;;;13.97;100.00
14269;BME280;7218;51.480;7.006;2023-05-23T06:58:59;100760.16;;;13.71;100.00
14269;BME280;7218;51.480;7.006;2023-05-23T07:01:26;100769.97;;;13.63;100.00
14269;BME280;7218;51.480;7.006;2023-05-23T07:03:52;100765.63;;;13.62;100.00
14269;BME280;7218;51.480;7.006;2023-05-23T07:06:18;100773.38;;;13.67;100.00
14269;BME280;7218;51.480;7.006;2023-05-23T07:08:45;100762.53;;;13.80;100.00
14269;BME280;7218;51.480;7.006;2023-05-23T07:11:13;100763.16;;;13.92;100.00
14269;BME280;7218;51.480;7.006;2023-05-23T07:13:39;100772.38;;;13.72;100.00
14269;BME280;7218;51.480;7.006;2023-05-23T07:16:06;100773.34;;;14.04;100.00
14269;BME280;7218;51.480;7.006;2023-05-23T07:18:32;100782.22;;;13.98;100.00
14269;BME280;7218;51.480;7.006;2023-05-23T07:20:59;100777.53;;;13.75;100.00
14269;BME280;7218;51.480;7.006;2023-05-23T07:23:25;100786.13;;;13.80;100.00
14269;BME280;7218;51.480;7.006;2023-05-23T07:25:52;100783.94;;;13.99;100.00
14269;BME280;7218;51.480;7.006;2023-05-23T07:28:20;100794.78;;;14.19;100.00
14269;BME280;7218;51.480;7.006;2023-05-23T07:30:46;100791.09;;;13.93;100.00
14269;BME280;7218;51.480;7.006;2023-05-23T07:33:12;100798.47;;;14.11;100.00
14269;BME280;7218;51.480;7.006;2023-05-23T07:35:40;100810.44;;;13.89;100.00
14269;BME280;7218;51.480;7.006;2023-05-23T07:38:06;100799.69;;;13.98;100.00
14269;BME280;7218;51.480;7.006;2023-05-23T07:40:33;100812.28;;;13.84;100.00
14269;BME280;7218;51.480;7.006;2023-05-23T07:43:00;100806.81;;;13.56;100.00
14269;BME280;7218;51.480;7.006;2023-05-23T07:45:27;100808.88;;;13.80;100.00
14269;BME280;7218;51.480;7.006;2023-05-23T07:47:54;100811.59;;;13.75;100.00
14269;BME280;7218;51.480;7.006;2023-05-23T07:50:20;100813.72;;;13.97;100.00
14269;BME280;7218;51.480;7.006;2023-05-23T07:52:47;100816.41;;;13.94;100.00
14269;BME280;7218;51.480;7.006;2023-05-23T07:55:15;100823.53;;;14.24;100.00
14269;BME280;7218;51.480;7.006;2023-05-23T07:57:41;100822.81;;;14.17;100.00
14269;BME280;7218;51.480;7.006;2023-05-23T08:00:09;100825.59;;;14.10;100.00
14269;BME280;7218;51.480;7.006;2023-05-23T08:02:38;100839.53;;;14.49;100.00
14269;BME280;7218;51.480;7.006;2023-05-23T08:05:04;100835.88;;;13.84;100.00
14269;BME280;7218;51.480;7.006;2023-05-23T08:07:32;100850.00;;;13.78;100.00
14269;BME280;7218;51.480;7.006;2023-05-23T08:09:59;100840.09;;;13.52;100.00
14269;BME280;7218;51.480;7.006;2023-05-23T08:12:25;100851.09;;;13.69;100.00
14269;BME280;7218;51.480;7.006;2023-05-23T08:14:51;100848.66;;;13.20;100.00
14269;BME280;7218;51.480;7.006;2023-05-23T08:17:18;100847.09;;;13.10;100.00
14269;BME280;7218;51.480;7.006;2023-05-23T08:19:46;100855.06;;;13.47;100.00
14269;BME280;7218;51.480;7.006;2023-05-23T08:22:12;100856.78;;;13.48;100.00
14269;BME280;7218;51.480;7.006;2023-05-23T08:24:39;100855.53;;;13.26;100.00
14269;BME280;7218;51.480;7.006;2023-05-23T08:27:05;100862.88;;;13.06;100.00
14269;BME280;7218;51.480;7.006;2023-05-23T08:29:32;100852.56;;;13.00;100.00
14269;BME280;7218;51.480;7.006;2023-05-23T08:31:59;100867.19;;;13.10;100.00
14269;BME280;7218;51.480;7.006;2023-05-23T08:34:26;100867.19;;;13.11;100.00
14269;BME280;7218;51.480;7.006;2023-05-23T08:36:53;100867.19;;;13.11;100.00
14269;BME280;7218;51.480;7.006;2023-05-23T08:39:20;100866.19;;;13.17;100.00
14269;BME280;7218;51.480;7.006;2023-05-23T08:41:46;100871.38;;;13.20;100.00
14269;BME280;7218;51.480;7.006;2023-05-23T08:44:13;100868.41;;;13.36;100.00
14269;BME280;7218;51.480;7.006;2023-05-23T08:46:43;100872.44;;;13.51;100.00
14269;BME280;7218;51.480;7.006;2023-05-23T08:49:12;100879.66;;;13.40;100.00
14269;BME280;7218;51.480;7.006;2023-05-23T08:51:41;100879.41;;;13.52;100.00
14269;BME280;7218;51.480;7.006;2023-05-23T08:54:10;100879.75;;;13.35;100.00
14269;BME280;7218;51.480;7.006;2023-05-23T08:56:37;100882.94;;;13.07;100.00
14269;BME280;7218;51.480;7.006;2023-05-23T08:59:06;100876.16;;;13.41;100.00
14269;BME280;7218;51.480;7.006;2023-05-23T09:01:34;100891.28;;;13.68;100.00
14269;BME280;7218;51.480;7.006;2023-05-23T09:04:01;100902.91;;;13.55;100.00
14269;BME280;7218;51.480;7.006;2023-05-23T09:06:29;100911.13;;;12.94;100.00
14269;BME280;7218;51.480;7.006;2023-05-23T09:08:56;100918.22;;;12.89;100.00
14269;BME280;7218;51.480;7.006;2023-05-23T09:11:24;100909.78;;;12.72;100.00
14269;BME280;7218;51.480;7.006;2023-05-23T09:13:50;100923.25;;;12.50;100.00
14269;BME280;7218;51.480;7.006;2023-05-23T09:16:18;100918.41;;;12.78;100.00
14269;BME280;7218;51.480;7.006;2023-05-23T09:18:44;100914.84;;;12.81;100.00
14269;BME280;7218;51.480;7.006;2023-05-23T09:21:12;100924.53;;;12.77;100.00
14269;BME280;7218;51.480;7.006;2023-05-23T09:23:40;100919.13;;;12.86;100.00
14269;BME280;7218;51.480;7.006;2023-05-23T09:26:07;100917.44;;;12.82;100.00
14269;BME280;7218;51.480;7.006;2023-05-23T09:28:37;100918.78;;;13.05;100.00
14269;BME280;7218;51.480;7.006;2023-05-23T09:31:05;100911.19;;;13.35;100.00
14269;BME280;7218;51.480;7.006;2023-05-23T09:33:35;100914.81;;;13.70;100.00
14269;BME280;7218;51.480;7.006;2023-05-23T09:36:03;100920.63;;;14.21;100.00
14269;BME280;7218;51.480;7.006;2023-05-23T09:38:29;100919.09;;;14.12;98.85
14269;BME280;7218;51.480;7.006;2023-05-23T09:40:57;100927.97;;;14.07;97.52
14269;BME280;7218;51.480;7.006;2023-05-23T09:43:24;100919.22;;;13.69;98.20
14269;BME280;7218;51.480;7.006;2023-05-23T09:45:52;100917.59;;;14.02;99.63
14269;BME280;7218;51.480;7.006;2023-05-23T09:48:27;100925.50;;;14.38;97.14
14269;BME280;7218;51.480;7.006;2023-05-23T09:50:54;100923.97;;;13.91;97.44
14269;BME280;7218;51.480;7.006;2023-05-23T09:53:20;100929.38;;;13.45;100.00
14269;BME280;7218;51.480;7.006;2023-05-23T09:55:48;100936.13;;;13.12;100.00
14269;BME280;7218;51.480;7.006;2023-05-23T09:58:16;100937.16;;;13.02;100.00
14269;BME280;7218;51.480;7.006;2023-05-23T10:00:45;100938.22;;;12.91;100.00
14269;BME280;7218;51.480;7.006;2023-05-23T10:03:15;100948.09;;;12.76;100.00
14269;BME280;7218;51.480;7.006;2023-05-23T10:05:44;100946.75;;;13.03;100.00
14269;BME280;7218;51.480;7.006;2023-05-23T10:08:13;100944.66;;;13.21;100.00
14269;BME280;7218;51.480;7.006;2023-05-23T10:13:56;100940.56;;;13.51;98.65
14269;BME280;7218;51.480;7.006;2023-05-23T10:16:29;100945.22;;;13.78;99.86
14269;BME280;7218;51.480;7.006;2023-05-23T10:19:02;100948.59;;;13.44;98.41
14269;BME280;7218;51.480;7.006;2023-05-23T10:21:34;100948.63;;;13.42;96.50
14269;BME280;7218;51.480;7.006;2023-05-23T10:24:03;100949.38;;;13.49;95.24
14269;BME280;7218;51.480;7.006;2023-05-23T10:26:30;100959.38;;;13.70;94.56
14269;BME280;7218;51.480;7.006;2023-05-23T10:28:56;100947.50;;;13.54;92.07
14269;BME280;7218;51.480;7.006;2023-05-23T10:31:23;100958.16;;;13.86;90.62
14269;BME280;7218;51.480;7.006;2023-05-23T10:33:54;100953.56;;;13.96;89.07
14269;BME280;7218;51.480;7.006;2023-05-23T10:36:26;100951.91;;;14.65;86.32
14269;BME280;7218;51.480;7.006;2023-05-23T10:39:03;100942.44;;;15.86;83.31
14269;BME280;7218;51.480;7.006;2023-05-23T10:41:35;100946.16;;;16.35;78.81
14269;BME280;7218;51.480;7.006;2023-05-23T10:44:09;100941.06;;;16.03;76.39
14269;BME280;7218;51.480;7.006;2023-05-23T10:46:50;100952.13;;;15.55;76.99
14269;BME280;7218;51.480;7.006;2023-05-23T10:49:17;100958.84;;;15.02;82.28
14269;BME280;7218;51.480;7.006;2023-05-23T10:51:48;100956.31;;;14.99;83.74
14269;BME280;7218;51.480;7.006;2023-05-23T10:54:17;100961.00;;;14.88;82.61
14269;BME280;7218;51.480;7.006;2023-05-23T10:56:43;100957.59;;;14.84;81.79
14269;BME280;7218;51.480;7.006;2023-05-23T10:59:18;100954.19;;;15.13;79.97
14269;BME280;7218;51.480;7.006;2023-05-23T11:01:45;100962.16;;;14.76;81.17
14269;BME280;7218;51.480;7.006;2023-05-23T11:04:12;100960.72;;;14.98;83.40
14269;BME280;7218;51.480;7.006;2023-05-23T11:06:39;100959.03;;;14.94;80.77
14269;BME280;7218;51.480;7.006;2023-05-23T11:09:11;100969.13;;;14.77;81.57
14269;BME280;7218;51.480;7.006;2023-05-23T11:11:54;100967.13;;;14.87;82.09
14269;BME280;7218;51.480;7.006;2023-05-23T11:14:49;100975.28;;;14.76;81.49
14269;BME280;7218;51.480;7.006;2023-05-23T11:17:17;100979.38;;;14.52;83.94
14269;BME280;7218;51.480;7.006;2023-05-23T11:19:58;100971.28;;;14.25;85.57
14269;BME280;7218;51.480;7.006;2023-05-23T11:22:27;100977.13;;;14.37;84.75
14269;BME280;7218;51.480;7.006;2023-05-23T11:24:56;100975.41;;;14.72;83.90
14269;BME280;7218;51.480;7.006;2023-05-23T11:27:26;100981.25;;;14.83;82.13
14269;BME280;7218;51.480;7.006;2023-05-23T11:30:03;100977.13;;;14.73;84.11
14269;BME280;7218;51.480;7.006;2023-05-23T11:32:32;100978.25;;;14.62;84.33
14269;BME280;7218;51.480;7.006;2023-05-23T11:34:59;100984.84;;;14.79;83.99
14269;BME280;7218;51.480;7.006;2023-05-23T11:37:26;100977.94;;;14.75;85.11
14269;BME280;7218;51.480;7.006;2023-05-23T11:39:53;100989.84;;;14.89;80.71
14269;BME280;7218;51.480;7.006;2023-05-23T11:42:22;100976.84;;;15.17;79.55
14269;BME280;7218;51.480;7.006;2023-05-23T11:44:49;100982.38;;;15.06;77.79
14269;BME280;7218;51.480;7.006;2023-05-23T11:47:16;100982.69;;;15.27;78.58
14269;BME280;7218;51.480;7.006;2023-05-23T11:49:44;100980.81;;;15.32;77.98
14269;BME280;7218;51.480;7.006;2023-05-23T11:52:11;100977.34;;;15.30;75.82
14269;BME280;7218;51.480;7.006;2023-05-23T11:54:39;100981.06;;;15.23;76.04
14269;BME280;7218;51.480;7.006;2023-05-23T11:57:05;100986.84;;;15.03;76.06
14269;BME280;7218;51.480;7.006;2023-05-23T11:59:33;100986.22;;;15.26;73.88
14269;BME280;7218;51.480;7.006;2023-05-23T12:02:00;100987.38;;;15.48;74.60
14269;BME280;7218;51.480;7.006;2023-05-23T12:04:27;100990.91;;;15.78;71.48
14269;BME280;7218;51.480;7.006;2023-05-23T12:06:54;100989.72;;;16.17;69.67
14269;BME280;7218;51.480;7.006;2023-05-23T12:09:20;100985.63;;;16.89;65.70
14269;BME280;7218;51.480;7.006;2023-05-23T12:11:47;100986.03;;;16.49;65.05
14269;BME280;7218;51.480;7.006;2023-05-23T12:14:15;100991.41;;;16.46;68.17
14269;BME280;7218;51.480;7.006;2023-05-23T12:16:44;100995.94;;;16.95;66.10
14269;BME280;7218;51.480;7.006;2023-05-23T12:19:11;100988.50;;;18.26;57.53
14269;BME280;7218;51.480;7.006;2023-05-23T12:21:43;100994.88;;;18.42;56.72
14269;BME280;7218;51.480;7.006;2023-05-23T12:24:13;100989.41;;;18.68;53.71
14269;BME280;7218;51.480;7.006;2023-05-23T12:26:45;100989.22;;;19.93;51.63
14269;BME280;7218;51.480;7.006;2023-05-23T12:29:11;100993.66;;;20.11;49.28
14269;BME280;7218;51.480;7.006;2023-05-23T12:31:38;100994.94;;;21.27;46.18
14269;BME280;7218;51.480;7.006;2023-05-23T12:34:06;100984.66;;;21.21;44.40
14269;BME280;7218;51.480;7.006;2023-05-23T12:36:33;100980.13;;;21.06;43.41
14269;BME280;7218;51.480;7.006;2023-05-23T12:39:03;100982.63;;;20.20;43.85
14269;BME280;7218;51.480;7.006;2023-05-23T12:41:31;100977.69;;;19.75;47.54
14269;BME280;7218;51.480;7.006;2023-05-23T12:43:58;100983.13;;;20.47;46.88
14269;BME280;7218;51.480;7.006;2023-05-23T12:46:25;100983.50;;;21.27;42.92
14269;BME280;7218;51.480;7.006;2023-05-23T12:48:53;100977.69;;;21.01;41.00
14269;BME280;7218;51.480;7.006;2023-05-23T12:51:21;100983.50;;;21.27;41.09
14269;BME280;7218;51.480;7.006;2023-05-23T12:53:47;100984.78;;;21.35;42.41
14269;BME280;7218;51.480;7.006;2023-05-23T12:56:14;100983.09;;;21.17;41.02
14269;BME280;7218;51.480;7.006;2023-05-23T12:58:40;100977.69;;;21.01;44.17